Laguna Woods, California
Current Conditions -  °F | °C
As of 1:30 PM on Saturday 20 Dec 2014 (Local Time) from KSNA Reporting Station
Broken Clouds Broken Clouds  
Wind Chill: 64°   Ceiling: 3000
Heat Index: 64°   Visibility: 10mi
Dew Point: 52°   Wind: 5mph
Humidity: 64%   Direction: 230°SW
Pressure: 30.13"   Gusts: NA
Location:  33.61°N, 117.73°W
Report Text: KSNA 202130Z 23004KT 10SM FEW021 BKN030 18/11 A3013 RMK AO2
Loading
Personal Weather Stations






























Interactive Weather Map New forecast layout! Learn more

10-Day Weather Forecast

Advertisements
Track Severe Weather on mobile